Crossroads, NM

5:53 AM MDT on May 06, 2015 (GMT -0600)
APRSWXNET | | Change Station
CLOSE
Current Station
Personal Weather Station
Location: Milnesand, NM
Elevation: 4117 ft
Nearby Weather Stations

Elev 4117 ft 33.65 °N, 103.27 °W | Updated 22 minutes ago

Partly Cloudy
Partly Cloudy
48 °F
Feels Like 48 °F
N
0
Wind Variable Wind from SSW
Gusts 0.0 mph

Today
High -- | Low -- °F
--% Chance of Precip.
Yesterday
High -- | Low -- °F
Precip. -- in
6:00 AM 7:40 PM
Waning Gibbous, 94% visible
Pressure 29.91 in
Visibility 5.0 miles
Clouds Overcast 500 ft
Windchill 48 °F
Dew Point 43 °F
Humidity 82%
Rainfall in
Snow Depth Not available.
UV 0 out of 12
Pollen 7.00 out of 12
Air Quality Not available.
Flu Activity Local Activity
METAR KHOB 061150Z 17012KT 5SM BR OVC005 15/15 A2991

More Conditions Fewer Conditions

Pressure 29.91 in
Visibility 5.0 miles
Clouds Overcast 500 ft
Windchill 48 °F
Dew Point 43 °F
Humidity 82%
Rainfall in
Snow Depth Not available.
UV 0 out of 12
Pollen 7.00 out of 12
Air Quality Not available.
Flu Activity Local Activity
METAR KHOB 061150Z 17012KT 5SM BR OVC005 15/15 A2991

More Conditions Fewer Conditions

10-Day Weather Forecast

Almanac

Astronomy

May. 06, 2015 Rise Set
Actual Time
Civil Twilight
Nautical Twilight
Astronomical Twilight
Moon
Length of Visible Light
Length of Day
Tomorrow will be .
, % of the Moon is Illuminated

Today's Extremes

State Highs State Lows

Community

WunderPhotos

Upload Photos

1,818,880 photos uploaded!

WunderBlogs® & News

Nearby

Air Quality

  Air Quality AQ Index Pollutant
Not available.

Snow Depth

Station Depth Elevation

Earthquake Activity

City Distance Mag. Time & Date
Minimum magnitude displayed is 2.5.

Coastal Water Temperatures

Place Temperature

Stations

Nearby Weather Stations

Station Location Temp. Windchill Dew Point Humidity Wind Precip. Elev Updated Type